sensor_id;sensor_type;location;lat;lon;timestamp;temperature;humidity
51853;DHT22;37894;53.172;6.598;2023-11-22T00:01:04;3.20;99.90
51853;DHT22;37894;53.172;6.598;2023-11-22T00:03:30;4.00;99.90
51853;DHT22;37894;53.172;6.598;2023-11-22T00:05:56;4.80;99.90
51853;DHT22;37894;53.172;6.598;2023-11-22T00:10:48;4.20;99.90
51853;DHT22;37894;53.172;6.598;2023-11-22T00:13:14;3.50;99.90
51853;DHT22;37894;53.172;6.598;2023-11-22T00:15:39;3.90;99.90
51853;DHT22;37894;53.172;6.598;2023-11-22T00:18:05;3.90;99.90
51853;DHT22;37894;53.172;6.598;2023-11-22T00:20:31;3.80;99.90
51853;DHT22;37894;53.172;6.598;2023-11-22T00:25:23;3.60;99.90
51853;DHT22;37894;53.172;6.598;2023-11-22T00:27:48;3.80;99.90
51853;DHT22;37894;53.172;6.598;2023-11-22T00:32:40;3.50;99.90
51853;DHT22;37894;53.172;6.598;2023-11-22T00:35:07;3.50;99.90
51853;DHT22;37894;53.172;6.598;2023-11-22T00:40:00;3.50;99.90
51853;DHT22;37894;53.172;6.598;2023-11-22T00:44:57;3.30;99.90
51853;DHT22;37894;53.172;6.598;2023-11-22T00:52:15;3.20;99.90
51853;DHT22;37894;53.172;6.598;2023-11-22T00:54:41;3.30;99.90
51853;DHT22;37894;53.172;6.598;2023-11-22T00:57:06;3.30;99.90
51853;DHT22;37894;53.172;6.598;2023-11-22T00:59:32;3.20;99.90
51853;DHT22;37894;53.172;6.598;2023-11-22T01:01:58;2.90;99.90
51853;DHT22;37894;53.172;6.598;2023-11-22T01:09:16;2.60;99.90
51853;DHT22;37894;53.172;6.598;2023-11-22T01:11:43;3.00;99.90
51853;DHT22;37894;53.172;6.598;2023-11-22T01:14:09;2.40;99.90
51853;DHT22;37894;53.172;6.598;2023-11-22T01:19:02;3.20;99.90
51853;DHT22;37894;53.172;6.598;2023-11-22T01:21:28;3.20;99.90
51853;DHT22;37894;53.172;6.598;2023-11-22T01:23:54;2.30;99.90
51853;DHT22;37894;53.172;6.598;2023-11-22T01:28:46;3.60;99.90
51853;DHT22;37894;53.172;6.598;2023-11-22T01:31:12;2.80;99.90
51853;DHT22;37894;53.172;6.598;2023-11-22T01:33:38;2.90;99.90
51853;DHT22;37894;53.172;6.598;2023-11-22T01:36:05;2.80;99.90
51853;DHT22;37894;53.172;6.598;2023-11-22T01:38:30;2.70;99.90
51853;DHT22;37894;53.172;6.598;2023-11-22T01:43:22;2.60;99.90
51853;DHT22;37894;53.172;6.598;2023-11-22T01:45:49;2.80;99.90
51853;DHT22;37894;53.172;6.598;2023-11-22T01:48:15;2.40;99.90
51853;DHT22;37894;53.172;6.598;2023-11-22T01:50:42;2.70;99.90
51853;DHT22;37894;53.172;6.598;2023-11-22T01:53:11;2.70;99.90
51853;DHT22;37894;53.172;6.598;2023-11-22T01:55:41;1.90;99.90
51853;DHT22;37894;53.172;6.598;2023-11-22T01:58:07;2.60;99.90
51853;DHT22;37894;53.172;6.598;2023-11-22T02:00:41;2.50;99.90
51853;DHT22;37894;53.172;6.598;2023-11-22T02:03:08;2.10;99.90
51853;DHT22;37894;53.172;6.598;2023-11-22T02:08:00;3.60;99.90
51853;DHT22;37894;53.172;6.598;2023-11-22T02:12:52;2.40;99.90
51853;DHT22;37894;53.172;6.598;2023-11-22T02:15:17;3.00;99.90
51853;DHT22;37894;53.172;6.598;2023-11-22T02:17:43;2.60;99.90
51853;DHT22;37894;53.172;6.598;2023-11-22T02:20:11;2.30;99.90
51853;DHT22;37894;53.172;6.598;2023-11-22T02:22:47;2.60;99.90
51853;DHT22;37894;53.172;6.598;2023-11-22T02:25:13;1.40;99.90
51853;DHT22;37894;53.172;6.598;2023-11-22T02:27:39;2.80;99.90
51853;DHT22;37894;53.172;6.598;2023-11-22T02:30:06;2.30;99.90
51853;DHT22;37894;53.172;6.598;2023-11-22T02:34:59;1.80;99.90
51853;DHT22;37894;53.172;6.598;2023-11-22T02:37:25;2.30;99.90
51853;DHT22;37894;53.172;6.598;2023-11-22T02:40:16;1.70;99.90
51853;DHT22;37894;53.172;6.598;2023-11-22T02:42:43;2.20;99.90
51853;DHT22;37894;53.172;6.598;2023-11-22T02:47:35;2.00;99.90
51853;DHT22;37894;53.172;6.598;2023-11-22T02:50:02;2.00;99.90
51853;DHT22;37894;53.172;6.598;2023-11-22T02:52:28;2.10;99.90
51853;DHT22;37894;53.172;6.598;2023-11-22T02:57:19;2.40;99.90
51853;DHT22;37894;53.172;6.598;2023-11-22T03:02:11;2.10;99.90
51853;DHT22;37894;53.172;6.598;2023-11-22T03:04:37;3.30;99.90
51853;DHT22;37894;53.172;6.598;2023-11-22T03:07:04;2.10;99.90
51853;DHT22;37894;53.172;6.598;2023-11-22T03:09:32;3.90;99.90
51853;DHT22;37894;53.172;6.598;2023-11-22T03:11:57;2.20;99.90
51853;DHT22;37894;53.172;6.598;2023-11-22T03:14:23;2.00;99.90
51853;DHT22;37894;53.172;6.598;2023-11-22T03:16:49;2.20;99.90
51853;DHT22;37894;53.172;6.598;2023-11-22T03:19:15;2.10;99.90
51853;DHT22;37894;53.172;6.598;2023-11-22T03:21:41;0.70;99.90
51853;DHT22;37894;53.172;6.598;2023-11-22T03:24:09;1.80;99.90
51853;DHT22;37894;53.172;6.598;2023-11-22T03:29:01;1.80;99.90
51853;DHT22;37894;53.172;6.598;2023-11-22T03:31:28;1.90;99.90
51853;DHT22;37894;53.172;6.598;2023-11-22T03:33:54;1.50;99.90
51853;DHT22;37894;53.172;6.598;2023-11-22T03:38:48;1.80;99.90
51853;DHT22;37894;53.172;6.598;2023-11-22T03:46:06;1.90;99.90
51853;DHT22;37894;53.172;6.598;2023-11-22T03:50:58;1.70;99.90
51853;DHT22;37894;53.172;6.598;2023-11-22T03:55:52;1.60;99.90
51853;DHT22;37894;53.172;6.598;2023-11-22T03:58:18;0.60;99.90
51853;DHT22;37894;53.172;6.598;2023-11-22T04:03:10;2.70;99.90
51853;DHT22;37894;53.172;6.598;2023-11-22T04:08:01;1.60;99.90
51853;DHT22;37894;53.172;6.598;2023-11-22T04:10:27;1.50;99.90
51853;DHT22;37894;53.172;6.598;2023-11-22T04:17:45;1.50;99.90
51853;DHT22;37894;53.172;6.598;2023-11-22T04:20:12;1.50;99.90
51853;DHT22;37894;53.172;6.598;2023-11-22T04:22:41;1.30;99.90
51853;DHT22;37894;53.172;6.598;2023-11-22T04:25:07;2.40;99.90
51853;DHT22;37894;53.172;6.598;2023-11-22T04:30:00;2.50;99.90
51853;DHT22;37894;53.172;6.598;2023-11-22T04:34:52;1.20;99.90
51853;DHT22;37894;53.172;6.598;2023-11-22T04:37:18;1.70;99.90
51853;DHT22;37894;53.172;6.598;2023-11-22T04:39:43;1.50;99.90
51853;DHT22;37894;53.172;6.598;2023-11-22T04:42:09;1.00;99.90
51853;DHT22;37894;53.172;6.598;2023-11-22T04:47:01;1.60;99.90
51853;DHT22;37894;53.172;6.598;2023-11-22T04:51:53;0.90;99.90
51853;DHT22;37894;53.172;6.598;2023-11-22T04:54:20;1.80;99.90
51853;DHT22;37894;53.172;6.598;2023-11-22T04:59:13;1.50;99.90
51853;DHT22;37894;53.172;6.598;2023-11-22T05:06:31;1.30;99.90
51853;DHT22;37894;53.172;6.598;2023-11-22T05:08:56;1.00;99.90
51853;DHT22;37894;53.172;6.598;2023-11-22T05:13:48;1.10;99.90
51853;DHT22;37894;53.172;6.598;2023-11-22T05:16:16;1.20;99.90
51853;DHT22;37894;53.172;6.598;2023-11-22T05:18:42;1.40;99.90
51853;DHT22;37894;53.172;6.598;2023-11-22T05:23:34;0.50;99.90
51853;DHT22;37894;53.172;6.598;2023-11-22T05:26:03;1.30;99.90
51853;DHT22;37894;53.172;6.598;2023-11-22T05:28:31;1.30;99.90
51853;DHT22;37894;53.172;6.598;2023-11-22T05:30:56;1.00;99.90
51853;DHT22;37894;53.172;6.598;2023-11-22T05:40:41;1.40;99.90
51853;DHT22;37894;53.172;6.598;2023-11-22T05:45:35;1.50;99.90
51853;DHT22;37894;53.172;6.598;2023-11-22T05:48:01;1.40;99.90
51853;DHT22;37894;53.172;6.598;2023-11-22T05:50:27;1.20;99.90
51853;DHT22;37894;53.172;6.598;2023-11-22T05:52:53;0.60;99.90
51853;DHT22;37894;53.172;6.598;2023-11-22T05:57:45;1.40;99.90
51853;DHT22;37894;53.172;6.598;2023-11-22T06:00:11;1.50;99.90
51853;DHT22;37894;53.172;6.598;2023-11-22T06:02:37;1.60;99.90
51853;DHT22;37894;53.172;6.598;2023-11-22T06:05:04;1.40;99.90
51853;DHT22;37894;53.172;6.598;2023-11-22T06:07:31;0.80;99.90
51853;DHT22;37894;53.172;6.598;2023-11-22T06:12:23;1.50;99.90
51853;DHT22;37894;53.172;6.598;2023-11-22T06:17:15;1.50;99.90
51853;DHT22;37894;53.172;6.598;2023-11-22T06:22:07;1.40;99.90
51853;DHT22;37894;53.172;6.598;2023-11-22T06:24:33;1.50;99.90
51853;DHT22;37894;53.172;6.598;2023-11-22T06:27:02;1.40;99.90
51853;DHT22;37894;53.172;6.598;2023-11-22T06:31:54;1.60;99.90
51853;DHT22;37894;53.172;6.598;2023-11-22T06:34:20;0.60;99.90
51853;DHT22;37894;53.172;6.598;2023-11-22T06:39:12;1.50;99.90
51853;DHT22;37894;53.172;6.598;2023-11-22T06:41:41;1.50;99.90
51853;DHT22;37894;53.172;6.598;2023-11-22T06:44:07;1.50;99.90
51853;DHT22;37894;53.172;6.598;2023-11-22T06:48:58;2.20;99.90
51853;DHT22;37894;53.172;6.598;2023-11-22T06:56:19;1.30;99.90
51853;DHT22;37894;53.172;6.598;2023-11-22T07:01:11;1.30;99.90
51853;DHT22;37894;53.172;6.598;2023-11-22T07:08:30;1.50;99.90
51853;DHT22;37894;53.172;6.598;2023-11-22T07:10:56;1.60;99.90
51853;DHT22;37894;53.172;6.598;2023-11-22T07:13:22;1.40;99.90
51853;DHT22;37894;53.172;6.598;2023-11-22T07:18:16;1.60;99.90
51853;DHT22;37894;53.172;6.598;2023-11-22T07:20:42;1.80;99.90
51853;DHT22;37894;53.172;6.598;2023-11-22T07:25:39;1.50;99.90
51853;DHT22;37894;53.172;6.598;2023-11-22T07:28:05;1.30;99.90
51853;DHT22;37894;53.172;6.598;2023-11-22T07:30:30;1.80;99.90
51853;DHT22;37894;53.172;6.598;2023-11-22T07:32:58;1.50;99.90
51853;DHT22;37894;53.172;6.598;2023-11-22T07:35:24;1.60;99.90
51853;DHT22;37894;53.172;6.598;2023-11-22T07:37:51;1.80;99.90
51853;DHT22;37894;53.172;6.598;2023-11-22T07:40:17;2.00;99.90
51853;DHT22;37894;53.172;6.598;2023-11-22T07:47:39;1.70;99.90
51853;DHT22;37894;53.172;6.598;2023-11-22T07:50:10;1.90;99.90
51853;DHT22;37894;53.172;6.598;2023-11-22T07:52:37;1.00;99.90
51853;DHT22;37894;53.172;6.598;2023-11-22T07:55:04;1.00;99.90
51853;DHT22;37894;53.172;6.598;2023-11-22T07:57:37;1.70;99.90
51853;DHT22;37894;53.172;6.598;2023-11-22T08:00:04;1.90;99.90
51853;DHT22;37894;53.172;6.598;2023-11-22T08:04:58;1.10;99.90
51853;DHT22;37894;53.172;6.598;2023-11-22T08:07:27;2.60;99.90
51853;DHT22;37894;53.172;6.598;2023-11-22T08:09:53;1.90;99.90
51853;DHT22;37894;53.172;6.598;2023-11-22T08:12:19;2.50;99.90
51853;DHT22;37894;53.172;6.598;2023-11-22T08:14:46;2.00;99.90
51853;DHT22;37894;53.172;6.598;2023-11-22T08:22:06;1.70;99.90
51853;DHT22;37894;53.172;6.598;2023-11-22T08:24:31;2.50;99.90
51853;DHT22;37894;53.172;6.598;2023-11-22T08:29:26;1.90;99.90
51853;DHT22;37894;53.172;6.598;2023-11-22T08:34:18;2.20;99.90
51853;DHT22;37894;53.172;6.598;2023-11-22T08:41:36;2.20;99.90
51853;DHT22;37894;53.172;6.598;2023-11-22T08:44:03;1.90;99.90
51853;DHT22;37894;53.172;6.598;2023-11-22T08:46:29;2.40;99.90
51853;DHT22;37894;53.172;6.598;2023-11-22T08:51:22;2.10;99.90
51853;DHT22;37894;53.172;6.598;2023-11-22T09:01:08;2.40;99.90
51853;DHT22;37894;53.172;6.598;2023-11-22T09:06:00;2.30;99.90
51853;DHT22;37894;53.172;6.598;2023-11-22T09:08:26;3.40;99.90
51853;DHT22;37894;53.172;6.598;2023-11-22T09:10:52;2.40;99.90
51853;DHT22;37894;53.172;6.598;2023-11-22T09:18:11;2.20;99.90
51853;DHT22;37894;53.172;6.598;2023-11-22T09:20:41;2.50;99.90
51853;DHT22;37894;53.172;6.598;2023-11-22T09:23:09;3.30;99.90
51853;DHT22;37894;53.172;6.598;2023-11-22T09:25:35;3.30;99.90
51853;DHT22;37894;53.172;6.598;2023-11-22T09:28:01;2.30;99.90
51853;DHT22;37894;53.172;6.598;2023-11-22T09:30:29;1.80;99.90
51853;DHT22;37894;53.172;6.598;2023-11-22T09:32:59;2.70;99.90
51853;DHT22;37894;53.172;6.598;2023-11-22T09:40:18;2.70;99.90
51853;DHT22;37894;53.172;6.598;2023-11-22T09:42:44;2.80;99.90
51853;DHT22;37894;53.172;6.598;2023-11-22T09:45:19;2.80;99.90
51853;DHT22;37894;53.172;6.598;2023-11-22T09:47:45;2.80;99.90
51853;DHT22;37894;53.172;6.598;2023-11-22T09:50:19;2.90;99.90
51853;DHT22;37894;53.172;6.598;2023-11-22T09:52:50;3.00;99.90
51853;DHT22;37894;53.172;6.598;2023-11-22T09:55:20;2.60;99.90
51853;DHT22;37894;53.172;6.598;2023-11-22T09:57:48;3.20;99.90
51853;DHT22;37894;53.172;6.598;2023-11-22T10:00:16;3.10;99.90
51853;DHT22;37894;53.172;6.598;2023-11-22T10:02:44;3.20;99.90
51853;DHT22;37894;53.172;6.598;2023-11-22T10:07:37;4.30;99.90
51853;DHT22;37894;53.172;6.598;2023-11-22T10:10:04;3.20;99.90
51853;DHT22;37894;53.172;6.598;2023-11-22T10:12:31;3.30;99.90
51853;DHT22;37894;53.172;6.598;2023-11-22T10:15:16;3.50;99.90
51853;DHT22;37894;53.172;6.598;2023-11-22T10:17:58;3.50;99.90
51853;DHT22;37894;53.172;6.598;2023-11-22T10:20:42;3.50;99.90
51853;DHT22;37894;53.172;6.598;2023-11-22T10:23:13;3.80;99.90
51853;DHT22;37894;53.172;6.598;2023-11-22T10:25:51;3.70;99.90
51853;DHT22;37894;53.172;6.598;2023-11-22T10:28:18;3.70;99.90
51853;DHT22;37894;53.172;6.598;2023-11-22T10:30:48;3.90;99.90
51853;DHT22;37894;53.172;6.598;2023-11-22T10:33:16;3.80;99.90
51853;DHT22;37894;53.172;6.598;2023-11-22T10:35:46;3.60;99.90
51853;DHT22;37894;53.172;6.598;2023-11-22T10:38:16;4.00;99.90
51853;DHT22;37894;53.172;6.598;2023-11-22T10:40:42;4.10;99.90
51853;DHT22;37894;53.172;6.598;2023-11-22T10:43:11;4.10;99.90
51853;DHT22;37894;53.172;6.598;2023-11-22T10:45:38;4.10;99.90
51853;DHT22;37894;53.172;6.598;2023-11-22T10:48:04;4.20;99.90
51853;DHT22;37894;53.172;6.598;2023-11-22T10:50:31;4.20;99.90
51853;DHT22;37894;53.172;6.598;2023-11-22T10:52:58;4.50;99.90
51853;DHT22;37894;53.172;6.598;2023-11-22T10:55:32;4.40;99.90
51853;DHT22;37894;53.172;6.598;2023-11-22T10:58:04;4.30;99.90
51853;DHT22;37894;53.172;6.598;2023-11-22T11:00:31;4.20;99.90
51853;DHT22;37894;53.172;6.598;2023-11-22T11:03:00;4.00;99.90
51853;DHT22;37894;53.172;6.598;2023-11-22T11:05:31;4.10;99.90
51853;DHT22;37894;53.172;6.598;2023-11-22T11:08:17;4.40;99.90
51853;DHT22;37894;53.172;6.598;2023-11-22T11:10:46;4.50;99.90
51853;DHT22;37894;53.172;6.598;2023-11-22T11:13:12;4.10;99.90
51853;DHT22;37894;53.172;6.598;2023-11-22T11:15:42;4.70;99.90
51853;DHT22;37894;53.172;6.598;2023-11-22T11:18:12;5.80;99.90
51853;DHT22;37894;53.172;6.598;2023-11-22T11:20:52;4.80;99.90
51853;DHT22;37894;53.172;6.598;2023-11-22T11:23:26;5.10;99.90
51853;DHT22;37894;53.172;6.598;2023-11-22T11:25:57;4.90;99.90
51853;DHT22;37894;53.172;6.598;2023-11-22T11:28:23;5.70;99.90
51853;DHT22;37894;53.172;6.598;2023-11-22T11:30:53;5.20;99.90
51853;DHT22;37894;53.172;6.598;2023-11-22T11:33:27;5.40;99.90
51853;DHT22;37894;53.172;6.598;2023-11-22T11:35:54;5.10;99.90
51853;DHT22;37894;53.172;6.598;2023-11-22T11:38:45;6.20;99.90
51853;DHT22;37894;53.172;6.598;2023-11-22T11:41:15;6.00;99.90
51853;DHT22;37894;53.172;6.598;2023-11-22T11:43:45;5.40;99.90
51853;DHT22;37894;53.172;6.598;2023-11-22T11:46:12;5.50;99.90
51853;DHT22;37894;53.172;6.598;2023-11-22T11:48:45;5.40;99.90
51853;DHT22;37894;53.172;6.598;2023-11-22T11:51:18;5.30;99.90
51853;DHT22;37894;53.172;6.598;2023-11-22T11:53:47;4.70;99.90
51853;DHT22;37894;53.172;6.598;2023-11-22T11:56:13;5.30;99.90
51853;DHT22;37894;53.172;6.598;2023-11-22T11:58:42;5.40;99.90
51853;DHT22;37894;53.172;6.598;2023-11-22T12:01:08;5.60;99.90
51853;DHT22;37894;53.172;6.598;2023-11-22T12:03:38;4.90;99.90
51853;DHT22;37894;53.172;6.598;2023-11-22T12:06:05;5.60;99.90
51853;DHT22;37894;53.172;6.598;2023-11-22T12:08:31;4.60;99.90
51853;DHT22;37894;53.172;6.598;2023-11-22T12:13:29;4.90;99.90
51853;DHT22;37894;53.172;6.598;2023-11-22T12:18:22;5.10;99.90
51853;DHT22;37894;53.172;6.598;2023-11-22T12:20:58;5.30;99.90
51853;DHT22;37894;53.172;6.598;2023-11-22T12:23:25;5.30;99.90
51853;DHT22;37894;53.172;6.598;2023-11-22T12:26:00;5.10;99.90
51853;DHT22;37894;53.172;6.598;2023-11-22T12:28:27;4.90;99.90
51853;DHT22;37894;53.172;6.598;2023-11-22T12:30:54;5.30;99.90
51853;DHT22;37894;53.172;6.598;2023-11-22T12:35:47;4.90;99.90
51853;DHT22;37894;53.172;6.598;2023-11-22T12:38:14;5.20;99.90
51853;DHT22;37894;53.172;6.598;2023-11-22T12:40:46;5.70;99.90
51853;DHT22;37894;53.172;6.598;2023-11-22T12:43:13;5.20;99.90
51853;DHT22;37894;53.172;6.598;2023-11-22T12:48:24;5.10;99.90
51853;DHT22;37894;53.172;6.598;2023-11-22T12:50:51;4.80;99.90
51853;DHT22;37894;53.172;6.598;2023-11-22T12:53:17;5.20;99.90
51853;DHT22;37894;53.172;6.598;2023-11-22T12:55:48;5.10;99.90
51853;DHT22;37894;53.172;6.598;2023-11-22T12:58:25;5.00;99.90
51853;DHT22;37894;53.172;6.598;2023-11-22T13:00:52;4.90;99.90
51853;DHT22;37894;53.172;6.598;2023-11-22T13:03:26;5.20;99.90
51853;DHT22;37894;53.172;6.598;2023-11-22T13:05:52;5.80;99.90
51853;DHT22;37894;53.172;6.598;2023-11-22T13:08:18;4.40;99.90
51853;DHT22;37894;53.172;6.598;2023-11-22T13:10:48;5.00;99.90
51853;DHT22;37894;53.172;6.598;2023-11-22T13:13:23;5.00;99.90
51853;DHT22;37894;53.172;6.598;2023-11-22T13:15:50;5.50;99.90
51853;DHT22;37894;53.172;6.598;2023-11-22T13:18:16;5.30;99.90
51853;DHT22;37894;53.172;6.598;2023-11-22T13:20:42;5.60;99.90
51853;DHT22;37894;53.172;6.598;2023-11-22T13:23:09;5.10;99.90
51853;DHT22;37894;53.172;6.598;2023-11-22T13:28:01;4.50;99.90
51853;DHT22;37894;53.172;6.598;2023-11-22T13:30:27;4.90;99.90
51853;DHT22;37894;53.172;6.598;2023-11-22T13:32:54;5.10;99.90
51853;DHT22;37894;53.172;6.598;2023-11-22T13:35:22;4.70;99.90
51853;DHT22;37894;53.172;6.598;2023-11-22T13:37:48;5.40;99.90
51853;DHT22;37894;53.172;6.598;2023-11-22T13:40:17;5.10;99.90
51853;DHT22;37894;53.172;6.598;2023-11-22T13:42:45;5.70;99.90
51853;DHT22;37894;53.172;6.598;2023-11-22T13:45:12;4.80;99.90
51853;DHT22;37894;53.172;6.598;2023-11-22T13:47:42;4.30;99.90
51853;DHT22;37894;53.172;6.598;2023-11-22T13:52:35;5.60;99.90
51853;DHT22;37894;53.172;6.598;2023-11-22T13:55:01;5.00;99.90
51853;DHT22;37894;53.172;6.598;2023-11-22T13:57:30;4.80;99.90
51853;DHT22;37894;53.172;6.598;2023-11-22T13:59:57;4.50;99.90
51853;DHT22;37894;53.172;6.598;2023-11-22T14:02:22;4.80;99.90
51853;DHT22;37894;53.172;6.598;2023-11-22T14:07:14;4.60;99.90
51853;DHT22;37894;53.172;6.598;2023-11-22T14:09:40;4.50;99.90
51853;DHT22;37894;53.172;6.598;2023-11-22T14:12:05;3.60;99.90
51853;DHT22;37894;53.172;6.598;2023-11-22T14:14:31;4.40;99.90
51853;DHT22;37894;53.172;6.598;2023-11-22T14:16:57;3.80;99.90
51853;DHT22;37894;53.172;6.598;2023-11-22T14:21:48;4.70;99.90
51853;DHT22;37894;53.172;6.598;2023-11-22T14:29:07;4.40;99.90
51853;DHT22;37894;53.172;6.598;2023-11-22T14:33:59;5.60;99.90
51853;DHT22;37894;53.172;6.598;2023-11-22T14:36:24;4.70;99.90
51853;DHT22;37894;53.172;6.598;2023-11-22T14:38:52;4.50;99.90
51853;DHT22;37894;53.172;6.598;2023-11-22T14:41:22;4.30;99.90
51853;DHT22;37894;53.172;6.598;2023-11-22T14:46:14;4.30;99.90
51853;DHT22;37894;53.172;6.598;2023-11-22T14:48:39;4.70;99.90
51853;DHT22;37894;53.172;6.598;2023-11-22T14:51:05;5.70;99.90
51853;DHT22;37894;53.172;6.598;2023-11-22T14:53:33;4.20;99.90
51853;DHT22;37894;53.172;6.598;2023-11-22T14:55:59;4.30;99.90
51853;DHT22;37894;53.172;6.598;2023-11-22T15:03:19;5.10;99.90
51853;DHT22;37894;53.172;6.598;2023-11-22T15:08:12;4.30;99.90
51853;DHT22;37894;53.172;6.598;2023-11-22T15:13:04;4.50;99.90
51853;DHT22;37894;53.172;6.598;2023-11-22T15:17:56;4.60;99.90
51853;DHT22;37894;53.172;6.598;2023-11-22T15:22:48;4.70;99.90
51853;DHT22;37894;53.172;6.598;2023-11-22T15:27:41;4.60;99.90
51853;DHT22;37894;53.172;6.598;2023-11-22T15:30:07;4.50;99.90
51853;DHT22;37894;53.172;6.598;2023-11-22T15:32:33;4.60;99.90
51853;DHT22;37894;53.172;6.598;2023-11-22T15:35:00;4.60;99.90
51853;DHT22;37894;53.172;6.598;2023-11-22T15:37:26;4.70;99.90
51853;DHT22;37894;53.172;6.598;2023-11-22T15:39:52;4.90;99.90
51853;DHT22;37894;53.172;6.598;2023-11-22T15:52:03;5.80;99.90
51853;DHT22;37894;53.172;6.598;2023-11-22T15:56:55;4.70;99.90
51853;DHT22;37894;53.172;6.598;2023-11-22T15:59:21;4.90;99.90
51853;DHT22;37894;53.172;6.598;2023-11-22T16:21:23;4.90;99.90
51853;DHT22;37894;53.172;6.598;2023-11-22T16:28:44;4.70;99.90
51853;DHT22;37894;53.172;6.598;2023-11-22T16:31:11;4.90;99.90
51853;DHT22;37894;53.172;6.598;2023-11-22T16:33:39;5.20;99.90
51853;DHT22;37894;53.172;6.598;2023-11-22T16:36:05;5.10;99.90
51853;DHT22;37894;53.172;6.598;2023-11-22T16:40:57;4.50;99.90
51853;DHT22;37894;53.172;6.598;2023-11-22T16:45:50;5.00;99.90
51853;DHT22;37894;53.172;6.598;2023-11-22T16:50:43;5.10;99.90
51853;DHT22;37894;53.172;6.598;2023-11-22T16:53:10;5.20;99.90
51853;DHT22;37894;53.172;6.598;2023-11-22T16:55:40;4.30;99.90
51853;DHT22;37894;53.172;6.598;2023-11-22T17:00:34;5.30;99.90
51853;DHT22;37894;53.172;6.598;2023-11-22T17:05:28;4.30;99.90
51853;DHT22;37894;53.172;6.598;2023-11-22T17:07:54;4.90;99.90
51853;DHT22;37894;53.172;6.598;2023-11-22T17:10:22;5.00;99.90
51853;DHT22;37894;53.172;6.598;2023-11-22T17:12:49;5.30;99.90
51853;DHT22;37894;53.172;6.598;2023-11-22T17:15:15;5.20;99.90
51853;DHT22;37894;53.172;6.598;2023-11-22T17:17:41;5.30;99.90
51853;DHT22;37894;53.172;6.598;2023-11-22T17:20:09;5.20;99.90
51853;DHT22;37894;53.172;6.598;2023-11-22T17:25:02;5.40;99.90
51853;DHT22;37894;53.172;6.598;2023-11-22T17:27:37;5.20;99.90
51853;DHT22;37894;53.172;6.598;2023-11-22T17:30:04;5.40;99.90
51853;DHT22;37894;53.172;6.598;2023-11-22T17:34:56;5.70;99.90
51853;DHT22;37894;53.172;6.598;2023-11-22T17:39:48;5.80;99.90
51853;DHT22;37894;53.172;6.598;2023-11-22T17:42:15;5.60;99.90
51853;DHT22;37894;53.172;6.598;2023-11-22T17:44:41;5.70;99.90
51853;DHT22;37894;53.172;6.598;2023-11-22T17:47:06;5.30;99.90
51853;DHT22;37894;53.172;6.598;2023-11-22T17:49:32;5.80;99.90
51853;DHT22;37894;53.172;6.598;2023-11-22T17:54:24;5.90;99.90
51853;DHT22;37894;53.172;6.598;2023-11-22T17:56:50;6.10;99.90
51853;DHT22;37894;53.172;6.598;2023-11-22T17:59:16;5.90;99.90
51853;DHT22;37894;53.172;6.598;2023-11-22T18:01:42;5.70;99.90
51853;DHT22;37894;53.172;6.598;2023-11-22T18:09:02;5.60;99.90
51853;DHT22;37894;53.172;6.598;2023-11-22T18:11:28;5.80;99.90
51853;DHT22;37894;53.172;6.598;2023-11-22T18:13:54;6.30;99.90
51853;DHT22;37894;53.172;6.598;2023-11-22T18:16:21;5.80;99.90
51853;DHT22;37894;53.172;6.598;2023-11-22T18:21:13;6.20;99.90
51853;DHT22;37894;53.172;6.598;2023-11-22T18:23:39;6.20;99.90
51853;DHT22;37894;53.172;6.598;2023-11-22T18:26:10;5.90;99.90
51853;DHT22;37894;53.172;6.598;2023-11-22T18:31:02;6.50;99.90
51853;DHT22;37894;53.172;6.598;2023-11-22T18:33:30;6.30;99.90
51853;DHT22;37894;53.172;6.598;2023-11-22T18:35:56;6.20;99.90
51853;DHT22;37894;53.172;6.598;2023-11-22T18:38:23;6.00;99.90
51853;DHT22;37894;53.172;6.598;2023-11-22T18:40:51;6.00;99.90
51853;DHT22;37894;53.172;6.598;2023-11-22T18:43:17;6.00;99.90
51853;DHT22;37894;53.172;6.598;2023-11-22T18:45:43;6.10;99.90
51853;DHT22;37894;53.172;6.598;2023-11-22T18:55:31;5.30;99.90
51853;DHT22;37894;53.172;6.598;2023-11-22T19:00:23;6.00;99.90
51853;DHT22;37894;53.172;6.598;2023-11-22T19:02:49;5.90;99.90
51853;DHT22;37894;53.172;6.598;2023-11-22T19:05:14;6.30;99.90
51853;DHT22;37894;53.172;6.598;2023-11-22T19:10:08;5.20;99.90
51853;DHT22;37894;53.172;6.598;2023-11-22T19:15:00;6.30;99.90
51853;DHT22;37894;53.172;6.598;2023-11-22T19:19:53;6.20;99.90
51853;DHT22;37894;53.172;6.598;2023-11-22T19:22:19;6.30;99.90
51853;DHT22;37894;53.172;6.598;2023-11-22T19:24:44;6.40;99.90
51853;DHT22;37894;53.172;6.598;2023-11-22T19:29:38;6.40;99.90
51853;DHT22;37894;53.172;6.598;2023-11-22T19:32:04;6.50;99.90
51853;DHT22;37894;53.172;6.598;2023-11-22T19:34:30;7.50;99.90
51853;DHT22;37894;53.172;6.598;2023-11-22T19:36:56;6.40;99.90
51853;DHT22;37894;53.172;6.598;2023-11-22T19:39:22;6.20;99.90
51853;DHT22;37894;53.172;6.598;2023-11-22T19:41:50;6.20;99.90
51853;DHT22;37894;53.172;6.598;2023-11-22T19:44:16;6.20;99.90
51853;DHT22;37894;53.172;6.598;2023-11-22T19:46:48;6.30;99.90
51853;DHT22;37894;53.172;6.598;2023-11-22T19:49:14;6.30;99.90
51853;DHT22;37894;53.172;6.598;2023-11-22T19:51:43;6.10;99.90
51853;DHT22;37894;53.172;6.598;2023-11-22T19:54:09;6.60;99.90
51853;DHT22;37894;53.172;6.598;2023-11-22T19:59:01;6.50;99.90
51853;DHT22;37894;53.172;6.598;2023-11-22T20:01:26;6.40;99.90
51853;DHT22;37894;53.172;6.598;2023-11-22T20:03:52;6.30;99.90
51853;DHT22;37894;53.172;6.598;2023-11-22T20:08:44;6.40;99.90
51853;DHT22;37894;53.172;6.598;2023-11-22T20:11:10;6.30;99.90
51853;DHT22;37894;53.172;6.598;2023-11-22T20:16:02;7.00;99.90
51853;DHT22;37894;53.172;6.598;2023-11-22T20:18:29;6.40;99.90
51853;DHT22;37894;53.172;6.598;2023-11-22T20:20:55;6.50;99.90
51853;DHT22;37894;53.172;6.598;2023-11-22T20:23:21;6.20;99.90
51853;DHT22;37894;53.172;6.598;2023-11-22T20:25:47;6.50;99.90
51853;DHT22;37894;53.172;6.598;2023-11-22T20:28:13;6.40;99.90
51853;DHT22;37894;53.172;6.598;2023-11-22T20:35:31;6.50;99.90
51853;DHT22;37894;53.172;6.598;2023-11-22T20:37:57;6.50;99.90
51853;DHT22;37894;53.172;6.598;2023-11-22T20:40:23;6.50;99.90
51853;DHT22;37894;53.172;6.598;2023-11-22T20:42:48;5.70;99.90
51853;DHT22;37894;53.172;6.598;2023-11-22T20:47:40;7.50;99.90
51853;DHT22;37894;53.172;6.598;2023-11-22T20:50:08;6.40;99.90
51853;DHT22;37894;53.172;6.598;2023-11-22T20:52:34;6.50;99.90
51853;DHT22;37894;53.172;6.598;2023-11-22T20:55:00;7.00;99.90
51853;DHT22;37894;53.172;6.598;2023-11-22T20:57:34;6.50;99.90
51853;DHT22;37894;53.172;6.598;2023-11-22T21:00:00;6.00;99.90
51853;DHT22;37894;53.172;6.598;2023-11-22T21:04:52;6.70;99.90
51853;DHT22;37894;53.172;6.598;2023-11-22T21:07:18;6.90;99.90
51853;DHT22;37894;53.172;6.598;2023-11-22T21:09:44;6.30;99.90
51853;DHT22;37894;53.172;6.598;2023-11-22T21:12:10;6.80;99.90
51853;DHT22;37894;53.172;6.598;2023-11-22T21:14:36;6.80;99.90
51853;DHT22;37894;53.172;6.598;2023-11-22T21:17:02;6.20;99.90